Time;durP1;ratioP1;P1;durP2;ratioP2;P2;SDS_P1;SDS_P2;PMS_P1;PMS_P2;Temp;Humidity;BMP_temperature;BMP_pressure;BME280_temperature;BME280_humidity;BME280_pressure;Samples;Min_cycle;Max_cycle;Signal;HPM_P1;HPM_P2
2023/01/05 00:01:50;;;;;;;0.30;0.30;;;9.60;99.90;;;;;;5074076;28;20960;-67
2023/01/05 00:04:15;;;;;;;0.40;0.40;;;9.60;99.90;;;;;;5075467;28;20254;-68
2023/01/05 00:06:41;;;;;;;1.70;0.80;;;9.60;99.90;;;;;;5075378;28;20165;-68
2023/01/05 00:09:11;;;;;;;0.65;0.65;;;9.60;99.90;;;;;;5074130;28;20646;-68
2023/01/05 00:22:50;;;;;;;0.30;0.30;;;9.60;99.90;;;;;;5074970;28;20211;-68
2023/01/05 00:25:27;;;;;;;0.30;0.30;;;9.70;99.90;;;;;;5074995;28;20166;-68
2023/01/05 00:27:53;;;;;;;0.40;0.40;;;9.70;99.90;;;;;;5074958;28;20188;-68
2023/01/05 00:30:22;;;;;;;0.30;0.30;;;9.70;99.90;;;;;;5075285;28;20172;-68
2023/01/05 00:32:49;;;;;;;0.40;0.40;;;9.70;99.90;;;;;;5074739;28;20319;-67
2023/01/05 00:35:15;;;;;;;0.30;0.30;;;9.70;99.90;;;;;;5074757;28;20213;-68
2023/01/05 00:37:42;;;;;;;0.30;0.30;;;9.60;99.90;;;;;;5074699;28;20221;-68
2023/01/05 00:40:11;;;;;;;0.30;0.30;;;9.60;99.90;;;;;;5074647;28;20451;-68
2023/01/05 00:42:37;;;;;;;0.60;0.60;;;9.70;99.90;;;;;;5074490;28;20559;-68
2023/01/05 00:45:05;;;;;;;0.70;0.70;;;9.70;99.90;;;;;;5074408;28;20174;-68
2023/01/05 00:47:31;;;;;;;0.30;0.30;;;9.60;99.90;;;;;;5074468;28;20536;-68
2023/01/05 00:49:56;;;;;;;0.30;0.30;;;9.60;99.90;;;;;;5074461;28;20177;-67
2023/01/05 00:52:22;;;;;;;0.30;0.30;;;9.70;99.90;;;;;;5074282;28;20189;-68
2023/01/05 00:54:48;;;;;;;0.30;0.30;;;9.70;99.90;;;;;;5074247;28;20173;-68
2023/01/05 00:57:14;;;;;;;0.30;0.30;;;9.70;99.90;;;;;;5074313;28;20177;-68
2023/01/05 00:59:40;;;;;;;0.40;0.40;;;9.70;99.90;;;;;;5074126;28;20286;-68
2023/01/05 01:02:06;;;;;;;0.30;0.30;;;9.70;99.90;;;;;;5074158;28;20189;-68
2023/01/05 01:04:33;;;;;;;0.40;0.40;;;9.70;99.90;;;;;;5074034;28;20233;-68
2023/01/05 01:06:59;;;;;;;2.92;1.85;;;9.80;99.90;;;;;;5074393;28;20528;-68
2023/01/05 01:09:24;;;;;;;0.40;0.40;;;9.60;99.90;;;;;;5074294;28;20166;-68
2023/01/05 01:11:50;;;;;;;0.30;0.30;;;9.70;99.90;;;;;;5074219;28;20239;-68
2023/01/05 01:14:16;;;;;;;0.30;0.30;;;9.70;99.90;;;;;;5073864;28;20400;-68
2023/01/05 01:16:42;;;;;;;0.30;0.30;;;9.80;99.90;;;;;;5073936;28;20172;-68
2023/01/05 01:19:12;;;;;;;0.60;0.60;;;9.90;99.90;;;;;;5073858;28;20444;-67
2023/01/05 01:21:37;;;;;;;0.30;0.30;;;9.90;99.90;;;;;;5074133;28;20189;-68
2023/01/05 01:24:03;;;;;;;0.30;0.30;;;9.80;99.90;;;;;;5074301;28;20627;-68
2023/01/05 01:26:29;;;;;;;0.30;0.30;;;9.80;99.90;;;;;;5073941;28;20201;-68
2023/01/05 01:28:54;;;;;;;0.30;0.30;;;9.90;99.90;;;;;;5073927;28;20392;-68
2023/01/05 01:31:20;;;;;;;0.30;0.30;;;9.90;99.90;;;;;;5073617;28;20574;-68
2023/01/05 01:33:46;;;;;;;0.30;0.30;;;9.80;99.90;;;;;;5073908;28;20165;-67
2023/01/05 01:36:11;;;;;;;0.40;0.40;;;9.90;99.90;;;;;;5073678;28;20748;-67
2023/01/05 01:38:37;;;;;;;0.30;0.30;;;9.90;99.90;;;;;;5073834;28;20184;-68
2023/01/05 01:41:03;;;;;;;0.30;0.30;;;9.90;99.90;;;;;;5073758;28;20169;-68
2023/01/05 01:43:54;;;;;;;0.30;0.30;;;10.00;99.90;;;;;;5073560;28;20161;-68
2023/01/05 01:46:21;;;;;;;0.30;0.30;;;10.00;99.90;;;;;;5073439;28;20678;-68
2023/01/05 01:48:55;;;;;;;0.30;0.30;;;10.00;99.90;;;;;;5073638;28;20652;-68
2023/01/05 01:51:28;;;;;;;0.30;0.30;;;9.90;99.90;;;;;;5073988;28;20166;-68
2023/01/05 01:53:59;;;;;;;0.75;0.75;;;9.80;99.90;;;;;;5073556;28;20153;-68
2023/01/05 01:56:31;;;;;;;0.30;0.30;;;9.90;99.90;;;;;;5073396;28;20180;-68
2023/01/05 01:58:56;;;;;;;0.30;0.30;;;9.90;99.90;;;;;;5073561;28;20289;-68
2023/01/05 02:01:23;;;;;;;0.30;0.30;;;10.00;99.90;;;;;;5073358;28;20224;-68
2023/01/05 02:03:49;;;;;;;0.30;0.30;;;10.00;99.90;;;;;;5073009;28;20170;-68
2023/01/05 02:06:15;;;;;;;0.30;0.30;;;9.90;99.90;;;;;;5073323;28;20627;-67
2023/01/05 02:08:41;;;;;;;0.30;0.30;;;9.80;99.90;;;;;;5073784;28;20170;-68
2023/01/05 02:11:15;;;;;;;0.30;0.30;;;9.80;99.90;;;;;;5073476;28;20169;-68
2023/01/05 02:14:06;;;;;;;0.30;0.30;;;9.80;99.90;;;;;;5073307;28;20530;-67
2023/01/05 02:16:45;;;;;;;0.30;0.30;;;9.80;99.90;;;;;;5073348;28;20166;-68
2023/01/05 02:19:37;;;;;;;0.30;0.30;;;9.80;99.90;;;;;;5073406;28;20248;-68
2023/01/05 02:22:21;;;;;;;0.30;0.30;;;9.80;99.90;;;;;;5072086;28;20243;-68
2023/01/05 02:25:17;;;;;;;0.30;0.30;;;9.80;99.90;;;;;;5073051;28;20165;-68
2023/01/05 02:28:07;;;;;;;1.85;1.75;;;9.80;99.90;;;;;;5073410;28;20165;-68
2023/01/05 02:30:41;;;;;;;0.30;0.30;;;9.80;99.90;;;;;;5073341;28;20707;-68
2023/01/05 02:33:22;;;;;;;0.30;0.30;;;9.80;99.90;;;;;;5073095;28;20569;-67
2023/01/05 02:36:03;;;;;;;0.30;0.30;;;9.80;99.90;;;;;;5073052;28;20172;-67
2023/01/05 02:38:34;;;;;;;0.30;0.30;;;9.80;99.90;;;;;;5072981;28;20204;-68
2023/01/05 02:41:09;;;;;;;0.30;0.30;;;9.90;99.90;;;;;;5073059;28;20193;-67
2023/01/05 02:43:34;;;;;;;0.30;0.30;;;9.90;99.90;;;;;;5073335;28;20165;-68
2023/01/05 02:46:00;;;;;;;0.30;0.30;;;9.90;99.90;;;;;;5072821;28;20166;-68
2023/01/05 02:48:26;;;;;;;0.30;0.30;;;9.90;99.90;;;;;;5072969;28;20180;-68
2023/01/05 02:51:19;;;;;;;0.30;0.30;;;9.90;99.90;;;;;;5072979;28;20172;-68
2023/01/05 02:53:51;;;;;;;0.30;0.30;;;9.80;99.90;;;;;;5072917;28;20398;-68
2023/01/05 02:56:26;;;;;;;0.30;0.30;;;9.80;99.90;;;;;;5073001;28;20197;-68
2023/01/05 02:59:00;;;;;;;0.30;0.30;;;9.70;99.90;;;;;;5072782;28;20280;-68
2023/01/05 03:01:31;;;;;;;0.30;0.30;;;9.70;99.90;;;;;;5073004;28;20185;-68
2023/01/05 03:04:08;;;;;;;0.30;0.30;;;9.70;99.90;;;;;;5073071;28;20162;-68
2023/01/05 03:06:45;;;;;;;0.30;0.30;;;9.70;99.90;;;;;;5073111;28;20153;-67
2023/01/05 03:09:13;;;;;;;0.30;0.30;;;9.60;99.90;;;;;;5072731;28;20177;-67
2023/01/05 03:14:44;;;;;;;0.40;0.40;;;9.70;99.90;;;;;;5073415;28;20530;-68
2023/01/05 03:17:14;;;;;;;0.30;0.30;;;9.60;99.90;;;;;;5076473;28;20182;-68
2023/01/05 03:19:43;;;;;;;0.30;0.30;;;9.50;99.90;;;;;;5076340;28;20244;-67
2023/01/05 03:36:55;;;;;;;0.30;0.30;;;9.60;99.90;;;;;;5076000;28;20692;-68
2023/01/05 03:39:25;;;;;;;0.30;0.30;;;9.60;99.90;;;;;;5076064;28;20662;-68
2023/01/05 03:41:52;;;;;;;0.30;0.30;;;9.70;99.90;;;;;;5075943;28;20259;-68
2023/01/05 03:44:18;;;;;;;0.30;0.30;;;9.60;99.90;;;;;;5075505;28;20200;-68
2023/01/05 03:46:43;;;;;;;0.40;0.40;;;9.70;99.90;;;;;;5074409;28;20676;-68
2023/01/05 03:49:10;;;;;;;0.30;0.30;;;9.70;99.90;;;;;;5075703;28;20178;-68
2023/01/05 03:51:35;;;;;;;0.30;0.30;;;9.70;99.90;;;;;;5075754;28;20204;-68
2023/01/05 03:54:01;;;;;;;0.30;0.30;;;9.70;99.90;;;;;;5075465;28;20543;-68
2023/01/05 03:56:27;;;;;;;0.30;0.30;;;9.80;99.90;;;;;;5075748;28;20646;-68
2023/01/05 03:58:52;;;;;;;0.40;0.40;;;9.80;99.90;;;;;;5074110;28;20177;-68
2023/01/05 04:01:18;;;;;;;0.30;0.30;;;9.80;99.90;;;;;;5075506;28;20169;-68
2023/01/05 04:03:43;;;;;;;0.30;0.30;;;9.80;99.90;;;;;;5075430;28;20176;-68
2023/01/05 04:06:09;;;;;;;0.30;0.30;;;9.60;99.90;;;;;;5075349;28;20733;-68
2023/01/05 04:08:35;;;;;;;0.30;0.30;;;9.50;99.90;;;;;;5075434;28;20177;-67
2023/01/05 04:11:13;;;;;;;0.30;0.30;;;9.40;99.90;;;;;;5075450;28;20173;-68
2023/01/05 04:13:38;;;;;;;0.30;0.30;;;9.50;99.90;;;;;;5075465;28;20244;-68
2023/01/05 04:16:04;;;;;;;0.40;0.40;;;9.60;99.90;;;;;;5075025;28;20199;-68
2023/01/05 04:18:35;;;;;;;0.30;0.30;;;9.70;99.90;;;;;;5075171;28;20534;-67
2023/01/05 04:21:01;;;;;;;0.30;0.30;;;9.80;99.90;;;;;;5074999;28;20284;-68
2023/01/05 04:23:27;;;;;;;0.30;0.30;;;9.80;99.90;;;;;;5074973;28;20719;-68
2023/01/05 04:25:52;;;;;;;0.30;0.30;;;9.90;99.90;;;;;;5074359;28;20406;-68
2023/01/05 04:28:18;;;;;;;0.30;0.30;;;9.70;99.90;;;;;;5074956;28;20173;-67
2023/01/05 04:30:44;;;;;;;0.30;0.30;;;9.60;99.90;;;;;;5073669;28;20174;-69
2023/01/05 04:33:10;;;;;;;0.30;0.30;;;9.60;99.90;;;;;;5074765;28;20201;-68
2023/01/05 04:35:35;;;;;;;0.30;0.30;;;9.50;99.90;;;;;;5074831;28;20507;-68
2023/01/05 04:38:01;;;;;;;0.30;0.30;;;9.60;99.90;;;;;;5074558;28;20430;-68
2023/01/05 04:40:26;;;;;;;0.30;0.30;;;9.60;99.90;;;;;;5074814;28;20693;-68
2023/01/05 04:42:52;;;;;;;0.30;0.30;;;9.70;99.90;;;;;;5075031;28;20213;-68
2023/01/05 04:45:18;;;;;;;0.40;0.40;;;9.70;99.90;;;;;;5074473;28;20623;-68
2023/01/05 04:47:43;;;;;;;0.30;0.30;;;9.70;99.90;;;;;;5074789;28;20169;-67
2023/01/05 04:50:09;;;;;;;0.30;0.30;;;9.70;99.90;;;;;;5074706;28;20185;-68
2023/01/05 04:52:35;;;;;;;0.30;0.30;;;9.70;99.90;;;;;;5074375;28;20427;-69
2023/01/05 04:55:01;;;;;;;0.30;0.30;;;9.70;99.90;;;;;;5074172;28;20924;-67
2023/01/05 04:57:26;;;;;;;0.30;0.30;;;9.70;99.90;;;;;;5074303;28;20185;-68
2023/01/05 04:59:52;;;;;;;0.30;0.30;;;9.70;99.90;;;;;;5074280;28;20666;-67
2023/01/05 05:02:18;;;;;;;0.40;0.40;;;9.70;99.90;;;;;;5074328;28;20193;-68
2023/01/05 05:04:43;;;;;;;0.30;0.30;;;9.70;99.90;;;;;;5074107;28;20657;-68
2023/01/05 05:07:09;;;;;;;3.33;0.90;;;9.60;99.90;;;;;;5074117;28;20661;-68
2023/01/05 05:09:35;;;;;;;0.30;0.30;;;9.60;99.90;;;;;;5074038;28;20256;-68
2023/01/05 05:12:00;;;;;;;0.40;0.40;;;9.70;99.90;;;;;;5074156;28;20284;-68
2023/01/05 05:14:26;;;;;;;0.30;0.30;;;9.80;99.90;;;;;;5074119;28;20317;-68
2023/01/05 05:16:52;;;;;;;0.30;0.30;;;9.70;99.90;;;;;;5074064;28;20165;-68
2023/01/05 05:19:17;;;;;;;0.30;0.30;;;9.80;99.90;;;;;;5074046;28;20185;-68
2023/01/05 05:21:43;;;;;;;0.33;0.33;;;9.70;99.90;;;;;;5073936;28;20314;-69
2023/01/05 05:24:09;;;;;;;0.30;0.30;;;9.70;99.90;;;;;;5073711;28;20524;-68
2023/01/05 05:26:34;;;;;;;0.30;0.30;;;9.60;99.90;;;;;;5074458;28;20214;-67
2023/01/05 05:29:00;;;;;;;0.30;0.30;;;9.50;99.90;;;;;;5074020;28;20170;-68
2023/01/05 05:31:25;;;;;;;0.30;0.30;;;9.50;99.90;;;;;;5073649;28;20188;-67
2023/01/05 05:33:51;;;;;;;0.30;0.30;;;9.60;99.90;;;;;;5073740;28;20646;-68
2023/01/05 05:36:17;;;;;;;0.30;0.30;;;9.70;99.90;;;;;;5073528;28;20649;-68
2023/01/05 05:38:43;;;;;;;0.50;0.50;;;9.70;99.90;;;;;;5073022;28;20226;-68
2023/01/05 05:41:08;;;;;;;0.30;0.30;;;9.70;99.90;;;;;;5073729;28;20530;-68
2023/01/05 05:43:34;;;;;;;0.30;0.30;;;9.70;99.90;;;;;;5073824;28;20177;-68
2023/01/05 05:46:00;;;;;;;0.30;0.30;;;9.70;99.90;;;;;;5073519;28;20162;-67
2023/01/05 05:48:25;;;;;;;0.47;0.40;;;9.80;99.90;;;;;;5073532;28;20198;-68
2023/01/05 05:50:51;;;;;;;0.40;0.40;;;9.70;99.90;;;;;;5073539;28;20170;-68
2023/01/05 05:53:17;;;;;;;0.30;0.30;;;9.70;99.90;;;;;;5073395;28;20230;-67
2023/01/05 05:55:46;;;;;;;0.30;0.30;;;9.80;99.90;;;;;;5073263;28;20174;-68
2023/01/05 05:58:11;;;;;;;0.30;0.30;;;9.80;99.90;;;;;;5073274;28;20173;-68
2023/01/05 06:00:37;;;;;;;0.30;0.30;;;9.80;99.90;;;;;;5072123;28;20301;-68
2023/01/05 06:03:03;;;;;;;0.30;0.30;;;9.80;99.90;;;;;;5073609;28;20197;-67
2023/01/05 06:05:28;;;;;;;0.30;0.30;;;9.90;99.90;;;;;;5073255;28;20215;-67
2023/01/05 06:07:54;;;;;;;0.30;0.30;;;9.80;99.90;;;;;;5073249;28;20244;-68
2023/01/05 06:10:20;;;;;;;0.50;0.50;;;9.80;99.90;;;;;;5073301;28;20214;-68
2023/01/05 06:12:45;;;;;;;0.30;0.30;;;9.70;99.90;;;;;;5072004;28;20200;-68
2023/01/05 06:15:11;;;;;;;0.30;0.30;;;9.70;99.90;;;;;;5073218;28;20169;-67
2023/01/05 06:17:36;;;;;;;1.43;0.53;;;9.70;99.90;;;;;;5073253;28;20169;-68
2023/01/05 06:20:02;;;;;;;0.40;0.40;;;9.70;99.90;;;;;;5073335;28;20238;-68
2023/01/05 06:22:28;;;;;;;0.40;0.40;;;9.80;99.90;;;;;;5072933;28;20189;-68
2023/01/05 06:24:54;;;;;;;0.30;0.30;;;9.90;99.90;;;;;;5073161;28;20172;-67
2023/01/05 06:27:19;;;;;;;0.40;0.40;;;9.90;99.90;;;;;;5073124;28;20166;-68
2023/01/05 06:29:45;;;;;;;0.30;0.30;;;9.70;99.90;;;;;;5073226;28;20404;-68
2023/01/05 06:32:11;;;;;;;0.30;0.30;;;9.70;99.90;;;;;;5073036;28;20275;-68
2023/01/05 06:34:36;;;;;;;0.30;0.30;;;9.80;99.90;;;;;;5072744;28;20169;-68
2023/01/05 06:37:04;;;;;;;0.30;0.30;;;9.90;99.90;;;;;;5072270;28;20577;-68
2023/01/05 06:39:29;;;;;;;0.30;0.30;;;9.90;99.90;;;;;;5073407;28;20213;-68
2023/01/05 06:41:55;;;;;;;0.30;0.30;;;10.00;99.90;;;;;;5072946;28;20199;-68
2023/01/05 06:44:21;;;;;;;0.30;0.30;;;10.00;99.90;;;;;;5072773;28;20173;-68
2023/01/05 06:46:46;;;;;;;0.30;0.30;;;10.00;99.90;;;;;;5072853;28;20625;-67
2023/01/05 06:49:13;;;;;;;0.30;0.30;;;10.00;99.90;;;;;;5074952;28;20172;-68
2023/01/05 06:51:39;;;;;;;0.30;0.30;;;10.00;99.90;;;;;;5076839;28;20213;-68
2023/01/05 06:54:05;;;;;;;0.30;0.30;;;10.00;99.90;;;;;;5076564;28;20578;-68
2023/01/05 06:56:31;;;;;;;0.30;0.30;;;9.90;99.90;;;;;;5076637;28;20174;-68
2023/01/05 06:58:56;;;;;;;0.40;0.40;;;9.70;99.90;;;;;;5076714;28;20597;-68
2023/01/05 07:01:22;;;;;;;0.30;0.30;;;9.70;99.90;;;;;;5076457;28;20206;-67
2023/01/05 07:03:47;;;;;;;0.30;0.30;;;9.80;99.90;;;;;;5076465;28;20173;-68
2023/01/05 07:06:14;;;;;;;0.40;0.40;;;9.80;99.90;;;;;;5076393;28;20173;-68
2023/01/05 07:08:40;;;;;;;0.30;0.30;;;9.80;99.90;;;;;;5075843;28;20169;-68
2023/01/05 07:11:06;;;;;;;0.30;0.30;;;9.70;99.90;;;;;;5076219;28;20180;-68
2023/01/05 07:13:31;;;;;;;0.30;0.30;;;9.90;99.90;;;;;;5076319;28;20193;-68
2023/01/05 07:15:57;;;;;;;0.53;0.53;;;9.90;99.90;;;;;;5075535;28;20200;-68
2023/01/05 07:18:22;;;;;;;0.40;0.40;;;9.80;99.90;;;;;;5074986;28;20166;-69
2023/01/05 07:20:48;;;;;;;0.30;0.30;;;9.80;99.90;;;;;;5076276;28;20201;-70
2023/01/05 07:23:13;;;;;;;0.30;0.30;;;9.80;99.90;;;;;;5073328;28;20185;-70
2023/01/05 07:25:39;;;;;;;0.90;0.90;;;9.90;99.90;;;;;;5075742;28;20197;-69
2023/01/05 07:28:05;;;;;;;0.30;0.30;;;9.90;99.90;;;;;;5076639;28;20165;-70
2023/01/05 07:30:30;;;;;;;0.30;0.30;;;9.90;99.90;;;;;;5074247;28;20217;-67
2023/01/05 07:33:00;;;;;;;0.30;0.30;;;9.90;99.90;;;;;;5076595;28;20197;-70
2023/01/05 07:35:27;;;;;;;0.30;0.30;;;9.90;99.90;;;;;;5076027;28;20178;-70
2023/01/05 07:37:55;;;;;;;0.45;0.45;;;9.90;99.90;;;;;;5075833;28;20280;-70
2023/01/05 07:40:21;;;;;;;0.40;0.40;;;10.00;99.90;;;;;;5076014;28;20236;-69
2023/01/05 07:42:53;;;;;;;0.30;0.30;;;9.90;99.90;;;;;;5076128;28;20654;-68
2023/01/05 07:45:19;;;;;;;0.30;0.30;;;9.90;99.90;;;;;;5075497;28;20197;-68
2023/01/05 07:47:45;;;;;;;0.50;0.50;;;9.90;99.90;;;;;;5076415;28;20192;-68
2023/01/05 07:50:12;;;;;;;0.30;0.30;;;10.00;99.90;;;;;;5075859;28;20216;-69
2023/01/05 07:52:38;;;;;;;0.40;0.40;;;10.00;99.90;;;;;;5074295;28;20251;-70
2023/01/05 07:55:04;;;;;;;0.30;0.30;;;10.00;99.90;;;;;;5074938;28;20169;-68
2023/01/05 07:57:30;;;;;;;0.30;0.30;;;10.00;99.90;;;;;;5075568;28;20166;-69
2023/01/05 07:59:56;;;;;;;0.50;0.50;;;9.80;99.90;;;;;;5075265;28;20193;-68
2023/01/05 08:02:22;;;;;;;0.30;0.30;;;9.80;99.90;;;;;;5075370;28;20268;-70
2023/01/05 08:04:48;;;;;;;0.30;0.30;;;9.80;99.90;;;;;;5075391;28;20172;-70
2023/01/05 08:07:14;;;;;;;0.30;0.30;;;9.80;99.90;;;;;;5075585;28;20174;-70
2023/01/05 08:12:29;;;;;;;0.30;0.30;;;9.80;99.90;;;;;;5075557;28;20331;-69
2023/01/05 08:14:55;;;;;;;0.57;0.57;;;9.80;99.90;;;;;;5074167;28;20576;-68
2023/01/05 08:17:21;;;;;;;0.30;0.30;;;9.90;99.90;;;;;;5074237;28;20181;-67
2023/01/05 08:19:47;;;;;;;0.47;0.47;;;10.00;99.90;;;;;;5075310;28;20216;-68
2023/01/05 08:22:13;;;;;;;0.40;0.40;;;10.10;99.90;;;;;;5074712;28;20424;-68
2023/01/05 08:24:38;;;;;;;0.30;0.30;;;10.20;99.90;;;;;;5075139;28;20174;-68
2023/01/05 08:27:04;;;;;;;0.30;0.30;;;10.20;99.90;;;;;;5075127;28;20407;-68
2023/01/05 08:29:30;;;;;;;0.70;0.70;;;10.20;99.90;;;;;;5075133;28;20240;-69
2023/01/05 08:31:56;;;;;;;0.30;0.30;;;10.40;99.90;;;;;;5074866;28;20220;-67
2023/01/05 08:34:21;;;;;;;0.70;0.70;;;10.30;99.90;;;;;;5074669;28;20457;-68
2023/01/05 08:36:47;;;;;;;0.70;0.70;;;10.30;99.90;;;;;;5074639;28;20185;-69
2023/01/05 08:39:12;;;;;;;0.40;0.40;;;10.30;99.90;;;;;;5074794;28;20189;-69
2023/01/05 08:41:39;;;;;;;0.30;0.30;;;10.20;99.90;;;;;;5074741;28;20192;-68
2023/01/05 08:44:13;;;;;;;1.35;1.13;;;10.10;99.90;;;;;;5074410;28;20165;-68
2023/01/05 08:46:39;;;;;;;0.40;0.40;;;10.10;99.90;;;;;;5074562;28;20269;-69
2023/01/05 08:49:07;;;;;;;0.30;0.30;;;10.00;99.90;;;;;;5073283;28;20662;-68
2023/01/05 08:51:33;;;;;;;0.30;0.30;;;10.00;99.90;;;;;;5074462;28;20663;-68
2023/01/05 08:53:58;;;;;;;0.40;0.40;;;10.10;99.90;;;;;;5074652;28;20182;-69
2023/01/05 08:56:25;;;;;;;0.30;0.30;;;10.00;99.90;;;;;;5074452;28;20166;-68
2023/01/05 08:58:54;;;;;;;0.50;0.50;;;10.10;99.90;;;;;;5074422;28;20541;-67
2023/01/05 09:01:23;;;;;;;0.40;0.40;;;10.20;99.90;;;;;;5074187;28;20199;-68
2023/01/05 09:03:49;;;;;;;0.50;0.50;;;10.20;99.90;;;;;;5074203;28;20205;-68
2023/01/05 09:06:14;;;;;;;0.40;0.40;;;10.30;99.90;;;;;;5074174;28;20247;-68
2023/01/05 09:08:42;;;;;;;0.30;0.30;;;10.20;99.90;;;;;;5074384;28;20595;-68
2023/01/05 09:11:09;;;;;;;0.40;0.40;;;10.30;99.90;;;;;;5074161;28;20201;-68
2023/01/05 09:13:36;;;;;;;0.30;0.30;;;10.10;99.90;;;;;;5074053;28;20174;-68
2023/01/05 09:16:07;;;;;;;0.30;0.30;;;10.10;99.90;;;;;;5073796;28;20169;-67
2023/01/05 09:18:34;;;;;;;0.50;0.50;;;10.10;99.90;;;;;;5074089;28;20181;-68
2023/01/05 09:20:59;;;;;;;0.30;0.30;;;10.30;99.90;;;;;;5074101;28;20229;-67
2023/01/05 09:23:25;;;;;;;0.60;0.60;;;10.40;99.90;;;;;;5073934;28;20236;-68
2023/01/05 09:25:51;;;;;;;1.10;1.10;;;10.40;99.90;;;;;;5073732;28;20168;-68
2023/01/05 09:28:16;;;;;;;0.30;0.30;;;10.60;99.90;;;;;;5072527;28;20715;-68
2023/01/05 09:30:42;;;;;;;0.40;0.40;;;10.70;99.90;;;;;;5073644;28;20173;-69
2023/01/05 09:33:08;;;;;;;0.40;0.40;;;10.80;99.90;;;;;;5072133;28;20740;-69
2023/01/05 09:35:33;;;;;;;0.30;0.30;;;10.90;99.90;;;;;;5074121;28;20173;-69
2023/01/05 09:37:59;;;;;;;0.30;0.30;;;10.90;99.90;;;;;;5074183;28;20189;-69
2023/01/05 09:40:26;;;;;;;0.30;0.30;;;10.90;99.90;;;;;;5073613;28;20185;-69
2023/01/05 09:42:53;;;;;;;0.40;0.40;;;10.90;99.90;;;;;;5073977;28;20217;-69
2023/01/05 09:45:27;;;;;;;0.30;0.30;;;10.60;99.90;;;;;;5073549;28;20172;-68
2023/01/05 09:47:56;;;;;;;0.30;0.30;;;10.30;99.90;;;;;;5073556;28;20166;-69
2023/01/05 09:50:24;;;;;;;0.73;0.57;;;10.10;99.90;;;;;;5073999;28;20176;-68
2023/01/05 09:52:53;;;;;;;0.30;0.30;;;10.00;99.90;;;;;;5073595;28;20194;-70
2023/01/05 09:55:22;;;;;;;0.30;0.30;;;10.10;99.90;;;;;;5073328;28;20169;-69
2023/01/05 09:57:58;;;;;;;0.30;0.30;;;10.30;99.90;;;;;;5073465;28;20178;-69
2023/01/05 10:00:25;;;;;;;0.60;0.60;;;10.30;99.90;;;;;;5073658;28;20196;-69
2023/01/05 10:03:05;;;;;;;0.30;0.30;;;10.40;99.90;;;;;;5071474;28;20189;-69
2023/01/05 10:05:32;;;;;;;0.30;0.30;;;10.70;99.90;;;;;;5073210;28;20162;-69
2023/01/05 10:08:20;;;;;;;0.45;0.45;;;10.80;99.90;;;;;;5073331;28;20527;-68
2023/01/05 10:13:48;;;;;;;0.30;0.30;;;10.60;99.90;;;;;;5082294;28;20182;-69
2023/01/05 10:16:16;;;;;;;0.30;0.30;;;10.60;99.90;;;;;;5073181;28;20219;-69
2023/01/05 10:18:42;;;;;;;0.30;0.30;;;10.70;99.90;;;;;;5071624;28;20173;-69
2023/01/05 10:21:38;;;;;;;0.30;0.30;;;10.80;99.90;;;;;;5073224;28;20528;-67
2023/01/05 10:24:30;;;;;;;0.30;0.30;;;10.80;99.90;;;;;;5075686;28;20533;-70
2023/01/05 10:27:06;;;;;;;0.80;0.40;;;10.80;99.90;;;;;;5076751;28;20247;-71
2023/01/05 10:30:04;;;;;;;0.40;0.40;;;10.90;99.90;;;;;;5077712;28;20864;-68
2023/01/05 10:33:00;;;;;;;8.13;1.03;;;11.00;99.90;;;;;;5076320;28;20209;-69
2023/01/05 10:35:54;;;;;;;0.73;0.73;;;11.00;99.90;;;;;;5075126;28;20412;-69
2023/01/05 10:39:00;;;;;;;0.93;0.93;;;11.00;99.90;;;;;;5077130;28;20874;-68
2023/01/05 10:41:46;;;;;;;0.50;0.50;;;10.90;99.90;;;;;;5076667;28;20480;-68
2023/01/05 10:44:51;;;;;;;0.40;0.40;;;10.90;99.90;;;;;;5075863;28;20483;-68
2023/01/05 10:47:17;;;;;;;0.70;0.40;;;10.80;99.90;;;;;;5074957;28;20494;-68
2023/01/05 10:49:46;;;;;;;0.38;0.38;;;10.70;99.90;;;;;;5076436;28;20412;-67
2023/01/05 10:52:14;;;;;;;0.30;0.30;;;10.60;99.90;;;;;;5076708;28;20242;-68
2023/01/05 10:54:58;;;;;;;0.30;0.30;;;10.60;99.90;;;;;;5076625;28;20257;-66
2023/01/05 10:57:27;;;;;;;0.40;0.40;;;10.70;99.90;;;;;;5075779;28;20410;-69
2023/01/05 11:00:05;;;;;;;0.30;0.30;;;10.70;99.90;;;;;;5075649;28;20512;-68
2023/01/05 11:02:34;;;;;;;0.40;0.40;;;10.70;99.90;;;;;;5075510;28;20681;-67
2023/01/05 11:05:09;;;;;;;0.43;0.43;;;10.70;99.90;;;;;;5073620;28;20236;-69
2023/01/05 11:07:57;;;;;;;2.80;2.35;;;10.70;99.90;;;;;;5075908;28;20248;-68
2023/01/05 11:10:46;;;;;;;1.02;1.00;;;10.80;99.90;;;;;;5076234;28;20532;-69
2023/01/05 11:13:15;;;;;;;0.30;0.30;;;10.80;99.90;;;;;;5075225;28;20189;-67
2023/01/05 11:15:47;;;;;;;0.40;0.40;;;10.80;99.90;;;;;;5076327;28;20170;-68
2023/01/05 11:18:44;;;;;;;0.65;0.45;;;10.70;99.90;;;;;;5076542;28;20219;-69
2023/01/05 11:21:15;;;;;;;0.50;0.50;;;10.80;99.90;;;;;;5075898;28;20696;-69
2023/01/05 11:24:03;;;;;;;0.30;0.30;;;10.80;99.90;;;;;;5076607;28;20541;-68
2023/01/05 11:26:34;;;;;;;0.60;0.55;;;10.90;99.90;;;;;;5076398;28;20219;-68
2023/01/05 11:29:03;;;;;;;0.30;0.30;;;11.00;99.90;;;;;;5076851;28;20169;-69
2023/01/05 11:31:55;;;;;;;0.30;0.30;;;11.00;99.90;;;;;;5076140;28;20221;-69
2023/01/05 11:34:53;;;;;;;0.30;0.30;;;11.10;99.90;;;;;;5075942;28;20184;-68
2023/01/05 11:37:29;;;;;;;0.32;0.32;;;11.10;99.90;;;;;;5075477;28;20200;-70
2023/01/05 11:39:56;;;;;;;0.80;0.65;;;11.20;99.90;;;;;;5075922;28;20181;-68
2023/01/05 11:42:22;;;;;;;0.30;0.30;;;11.10;99.90;;;;;;5075777;28;20195;-68
2023/01/05 11:44:51;;;;;;;0.40;0.40;;;11.10;99.90;;;;;;5075685;28;20256;-67
2023/01/05 11:47:29;;;;;;;0.40;0.40;;;11.10;99.90;;;;;;5075950;28;20245;-68
2023/01/05 11:49:58;;;;;;;0.30;0.30;;;11.20;99.90;;;;;;5075782;28;20625;-67
2023/01/05 11:52:37;;;;;;;0.63;0.63;;;11.20;99.90;;;;;;5073926;28;20185;-68
2023/01/05 11:55:29;;;;;;;0.43;0.43;;;11.30;99.90;;;;;;5074017;28;20932;-67
2023/01/05 11:58:11;;;;;;;0.30;0.30;;;11.30;99.90;;;;;;5075697;28;20178;-67
2023/01/05 12:01:04;;;;;;;0.43;0.43;;;11.20;99.90;;;;;;5075817;28;20205;-67
2023/01/05 12:03:48;;;;;;;0.30;0.30;;;11.20;99.90;;;;;;5075065;28;20453;-68
2023/01/05 12:06:42;;;;;;;0.40;0.40;;;11.30;99.90;;;;;;5075467;28;20450;-68
2023/01/05 12:09:16;;;;;;;0.63;0.57;;;11.30;99.90;;;;;;5075388;28;20391;-68
2023/01/05 12:11:48;;;;;;;0.30;0.30;;;11.40;99.90;;;;;;5075339;28;20415;-69
2023/01/05 12:14:31;;;;;;;0.38;0.38;;;11.30;99.90;;;;;;5075225;28;20459;-68
2023/01/05 12:17:22;;;;;;;0.30;0.30;;;11.40;99.90;;;;;;5075578;28;20173;-67
2023/01/05 12:20:06;;;;;;;0.40;0.40;;;11.40;99.90;;;;;;5074974;28;20213;-68
2023/01/05 12:22:48;;;;;;;0.60;0.60;;;11.40;99.90;;;;;;5075108;28;20276;-67
2023/01/05 12:25:40;;;;;;;0.40;0.30;;;11.40;99.90;;;;;;5074897;28;20161;-69
2023/01/05 12:28:40;;;;;;;0.30;0.30;;;11.40;99.90;;;;;;5075207;28;20166;-68
2023/01/05 12:31:43;;;;;;;0.30;0.30;;;11.20;99.90;;;;;;5073135;28;20173;-67
2023/01/05 12:34:24;;;;;;;0.52;0.52;;;11.10;99.90;;;;;;5074700;28;20188;-68
2023/01/05 12:37:03;;;;;;;0.30;0.30;;;11.10;99.90;;;;;;5074957;28;20196;-68
2023/01/05 12:39:52;;;;;;;0.30;0.30;;;11.20;99.90;;;;;;5074763;28;20189;-68
2023/01/05 12:42:46;;;;;;;0.57;0.43;;;11.20;99.90;;;;;;5075036;28;20193;-68
2023/01/05 12:45:45;;;;;;;0.30;0.30;;;11.30;99.90;;;;;;5075344;28;20556;-70
2023/01/05 12:48:26;;;;;;;0.40;0.40;;;11.30;99.90;;;;;;5074817;28;20154;-69
2023/01/05 12:51:10;;;;;;;0.50;0.50;;;11.30;99.90;;;;;;5074794;28;20173;-69
2023/01/05 12:53:39;;;;;;;0.43;0.43;;;11.30;99.90;;;;;;5074808;28;20631;-69
2023/01/05 12:56:33;;;;;;;4.57;0.80;;;11.30;99.90;;;;;;5074916;28;20510;-68
2023/01/05 12:59:13;;;;;;;0.40;0.40;;;11.30;99.90;;;;;;5074465;28;20412;-69
2023/01/05 13:01:49;;;;;;;0.30;0.30;;;11.30;99.90;;;;;;5074377;28;20536;-69
2023/01/05 13:04:27;;;;;;;0.30;0.30;;;11.20;99.90;;;;;;5074435;28;20169;-69
2023/01/05 13:06:57;;;;;;;0.30;0.30;;;11.10;99.90;;;;;;5074350;28;20180;-69
2023/01/05 13:09:29;;;;;;;0.30;0.30;;;11.20;99.90;;;;;;5074221;28;20226;-69
2023/01/05 13:12:06;;;;;;;0.85;0.85;;;11.30;99.90;;;;;;5074440;28;20185;-69
2023/01/05 13:14:35;;;;;;;0.40;0.40;;;11.40;99.90;;;;;;5074098;28;20169;-69
2023/01/05 13:17:10;;;;;;;0.30;0.30;;;11.50;99.90;;;;;;5072388;28;20200;-67
2023/01/05 13:19:47;;;;;;;0.50;0.40;;;11.50;99.90;;;;;;5073629;28;20279;-69
2023/01/05 13:22:24;;;;;;;3.25;1.30;;;11.50;99.90;;;;;;5072157;28;20719;-69
2023/01/05 13:25:13;;;;;;;0.30;0.30;;;11.50;99.90;;;;;;5074136;28;20176;-69
2023/01/05 13:27:38;;;;;;;0.30;0.30;;;11.20;99.90;;;;;;5074580;28;20162;-69
2023/01/05 13:30:06;;;;;;;0.37;0.37;;;11.20;99.90;;;;;;5073997;28;20215;-69
2023/01/05 13:33:07;;;;;;;0.30;0.30;;;11.20;99.90;;;;;;5072094;28;20431;-69
2023/01/05 13:35:53;;;;;;;0.40;0.40;;;11.20;99.90;;;;;;5072203;28;20269;-68
2023/01/05 13:38:54;;;;;;;0.30;0.30;;;11.10;99.90;;;;;;5072785;28;20221;-69
2023/01/05 13:41:28;;;;;;;0.30;0.30;;;11.00;99.90;;;;;;5071879;28;20516;-68
2023/01/05 13:44:08;;;;;;;0.50;0.50;;;11.10;99.90;;;;;;5071775;28;20166;-69
2023/01/05 13:47:04;;;;;;;0.70;0.70;;;11.20;99.90;;;;;;5070983;28;20157;-69
2023/01/05 13:49:57;;;;;;;0.30;0.30;;;11.20;99.90;;;;;;5073207;28;20404;-68